Time;durP1;ratioP1;P1;durP2;ratioP2;P2;SDS_P1;SDS_P2;PMS_P1;PMS_P2;Temp;Humidity;BMP_temperature;BMP_pressure;BME280_temperature;BME280_humidity;BME280_pressure;Samples;Min_cycle;Max_cycle;Signal;HPM_P1;HPM_P2
2023/07/06 00:01:01;;;;;;;7.22;4.93;;;;;;;;;;2597932;22;20007;-93
2023/07/06 00:02:03;;;;;;;5.53;4.68;;;;;;;;;;2584912;23;19996;-92
2023/07/06 00:03:04;;;;;;;6.05;5.13;;;;;;;;;;2588322;23;20022;-91
2023/07/06 00:04:04;;;;;;;;;;;;;;;;;;2132087;22;10528773;-92
2023/07/06 00:05:05;;;;;;;8.00;4.93;;;;;;;;;;2598804;22;19955;-92
2023/07/06 00:06:09;;;;;;;8.13;5.28;;;;;;;;;;2603289;22;20072;-92
2023/07/06 00:07:10;;;;;;;5.93;4.78;;;;;;;;;;2587378;22;20000;-91
2023/07/06 00:08:12;;;;;;;6.85;5.28;;;;;;;;;;2593343;22;19991;-90
2023/07/06 00:09:13;;;;;;;6.90;4.72;;;;;;;;;;2597296;22;20030;-91
2023/07/06 00:10:14;;;;;;;6.88;4.90;;;;;;;;;;2580579;23;20114;-93
2023/07/06 00:11:15;;;;;;;7.35;4.72;;;;;;;;;;2585313;23;20370;-93
2023/07/06 00:12:18;;;;;;;5.95;4.68;;;;;;;;;;2581161;23;19992;-93
2023/07/06 00:13:20;;;;;;;6.28;5.22;;;;;;;;;;2585575;23;20004;-92
2023/07/06 00:14:23;;;;;;;6.47;5.13;;;;;;;;;;2593408;22;20014;-92
2023/07/06 00:15:23;;;;;;;5.88;4.75;;;;;;;;;;2581527;23;20075;-91
2023/07/06 00:16:23;;;;;;;7.63;5.22;;;;;;;;;;2108932;23;10983890;-93
2023/07/06 00:17:24;;;;;;;5.40;4.53;;;;;;;;;;2581466;23;20023;-92
2023/07/06 00:18:24;;;;;;;5.40;4.90;;;;;;;;;;2569124;23;20558;-93
2023/07/06 00:19:25;;;;;;;6.60;5.20;;;;;;;;;;2581166;23;20003;-92
2023/07/06 00:20:25;;;;;;;5.63;5.03;;;;;;;;;;2585647;23;20003;-92
2023/07/06 00:21:27;;;;;;;6.63;5.07;;;;;;;;;;2594006;22;20031;-92
2023/07/06 00:22:27;;;;;;;6.57;4.93;;;;;;;;;;2581496;23;20007;-92
2023/07/06 00:23:28;;;;;;;6.28;5.25;;;;;;;;;;2585774;23;20331;-92
2023/07/06 00:24:28;;;;;;;7.68;5.18;;;;;;;;;;2588211;22;19996;-90
2023/07/06 00:25:29;;;;;;;7.78;5.07;;;;;;;;;;2596908;22;19995;-92
2023/07/06 00:26:29;;;;;;;6.43;4.63;;;;;;;;;;2594324;22;20078;-93
2023/07/06 00:27:31;;;;;;;5.95;4.95;;;;;;;;;;2569125;23;20046;-92
2023/07/06 00:28:32;;;;;;;7.38;5.43;;;;;;;;;;2585857;23;19996;-92
2023/07/06 00:29:35;;;;;;;6.28;5.68;;;;;;;;;;2581595;23;20007;-92
2023/07/06 00:31:51;;;;;;;7.22;5.18;;;;;;;;;;2594106;22;20000;-92
2023/07/06 00:32:51;;;;;;;9.32;5.40;;;;;;;;;;2610654;22;19983;-92
2023/07/06 00:33:52;;;;;;;10.38;5.57;;;;;;;;;;2605703;22;20046;-91
2023/07/06 00:34:53;;;;;;;7.85;5.35;;;;;;;;;;2584173;23;20011;-92
2023/07/06 00:35:54;;;;;;;7.40;5.47;;;;;;;;;;2575854;23;19989;-94
2023/07/06 00:36:55;;;;;;;5.57;4.85;;;;;;;;;;2569610;23;19993;-92
2023/07/06 00:37:58;;;;;;;6.95;4.95;;;;;;;;;;2585684;23;19988;-92
2023/07/06 00:39:02;;;;;;;7.93;5.35;;;;;;;;;;2586160;22;19995;-92
2023/07/06 00:40:07;;;;;;;7.00;5.28;;;;;;;;;;2594507;22;20345;-92
2023/07/06 00:41:08;;;;;;;6.03;5.13;;;;;;;;;;2597814;22;20079;-92
2023/07/06 00:42:22;;;;;;;6.95;4.88;;;;;;;;;;2594417;22;19999;-92
2023/07/06 00:43:27;;;;;;;6.03;5.05;;;;;;;;;;2591539;22;20002;-94
2023/07/06 00:44:48;;;;;;;7.70;5.70;;;;;;;;;;2569759;23;20011;-92
2023/07/06 00:45:52;;;;;;;;;;;;;;;;;;2573848;23;19999;-93
2023/07/06 00:46:53;;;;;;;7.20;5.50;;;;;;;;;;2569117;23;20257;-92
2023/07/06 00:47:59;;;;;;;7.20;5.25;;;;;;;;;;2569119;23;19996;-93
2023/07/06 00:49:01;;;;;;;9.65;5.30;;;;;;;;;;2585715;23;20221;-92
2023/07/06 00:50:11;;;;;;;8.98;5.53;;;;;;;;;;2593445;22;20007;-92
2023/07/06 00:51:17;;;;;;;6.53;5.38;;;;;;;;;;2581230;23;20496;-92
2023/07/06 00:52:18;;;;;;;6.55;4.90;;;;;;;;;;2582417;22;20355;-92
2023/07/06 00:53:20;;;;;;;6.93;5.90;;;;;;;;;;2581613;23;20038;-93
2023/07/06 00:54:22;;;;;;;7.18;6.20;;;;;;;;;;2581882;22;20003;-92
2023/07/06 00:55:29;;;;;;;7.32;5.88;;;;;;;;;;2581980;23;20256;-93
2023/07/06 00:56:36;;;;;;;6.93;5.20;;;;;;;;;;2583501;22;20042;-94
2023/07/06 00:57:38;;;;;;;7.00;5.53;;;;;;;;;;2597920;22;20056;-94
2023/07/06 00:58:42;;;;;;;6.65;5.32;;;;;;;;;;2587066;22;20007;-94
2023/07/06 00:59:46;;;;;;;7.88;5.20;;;;;;;;;;2581688;23;20000;-94
2023/07/06 01:00:47;;;;;;;7.23;5.60;;;;;;;;;;2140863;23;10309605;-93
2023/07/06 01:01:48;;;;;;;7.88;5.78;;;;;;;;;;2582098;23;20043;-93
2023/07/06 01:02:56;;;;;;;6.85;5.28;;;;;;;;;;2585772;23;20086;-93
2023/07/06 01:03:58;;;;;;;8.43;5.80;;;;;;;;;;2586685;22;19992;-93
2023/07/06 01:04:58;;;;;;;6.30;5.20;;;;;;;;;;2581447;23;20067;-93
2023/07/06 01:06:03;;;;;;;7.35;5.50;;;;;;;;;;2569341;23;20052;-93
2023/07/06 01:07:06;;;;;;;8.35;5.47;;;;;;;;;;2569421;23;19997;-93
2023/07/06 01:08:11;;;;;;;5.90;5.03;;;;;;;;;;2569820;23;20000;-92
2023/07/06 01:09:12;;;;;;;6.15;5.30;;;;;;;;;;2586259;23;20064;-93
2023/07/06 01:10:16;;;;;;;8.10;5.97;;;;;;;;;;2586881;22;20049;-93
2023/07/06 01:11:20;;;;;;;9.43;5.10;;;;;;;;;;2581690;23;20453;-92
2023/07/06 01:12:24;;;;;;;9.27;6.13;;;;;;;;;;2588209;23;20007;-93
2023/07/06 01:13:25;;;;;;;7.80;5.80;;;;;;;;;;2587271;23;20357;-90
2023/07/06 01:14:27;;;;;;;7.10;5.07;;;;;;;;;;2582389;22;20035;-94
2023/07/06 01:15:31;;;;;;;8.70;6.20;;;;;;;;;;2598862;22;20007;-94
2023/07/06 01:16:59;;;;;;;9.38;5.60;;;;;;;;;;2586872;22;19996;-93
2023/07/06 01:18:08;;;;;;;7.43;5.78;;;;;;;;;;2581490;22;20066;-95
2023/07/06 01:19:14;;;;;;;8.00;5.18;;;;;;;;;;2571171;23;19996;-93
2023/07/06 01:20:48;;;;;;;7.15;5.22;;;;;;;;;;2586170;23;20430;-91
2023/07/06 01:22:24;;;;;;;6.20;4.93;;;;;;;;;;2560573;23;20454;-93
2023/07/06 01:23:57;;;;;;;8.63;5.45;;;;;;;;;;2586791;22;19992;-93
2023/07/06 01:25:18;;;;;;;7.22;5.40;;;;;;;;;;2593759;22;19999;-94
2023/07/06 01:26:41;;;;;;;8.77;5.15;;;;;;;;;;2590404;22;20003;-94
2023/07/06 01:28:18;;;;;;;6.38;5.00;;;;;;;;;;2578058;23;20020;-94
2023/07/06 01:29:30;;;;;;;6.25;5.10;;;;;;;;;;2567610;23;20064;-93
2023/07/06 01:31:16;;;;;;;7.20;5.30;;;;;;;;;;2581901;23;20071;-94
2023/07/06 01:32:25;;;;;;;8.43;5.18;;;;;;;;;;2556056;23;20004;-94
2023/07/06 01:33:43;;;;;;;8.25;6.05;;;;;;;;;;2575194;23;20422;-94
2023/07/06 01:35:02;;;;;;;6.95;5.43;;;;;;;;;;2586385;23;19999;-93
2023/07/06 01:36:13;;;;;;;5.82;5.10;;;;;;;;;;2587106;22;20019;-93
2023/07/06 01:37:18;;;;;;;7.55;5.22;;;;;;;;;;2594234;22;20484;-92
2023/07/06 01:38:22;;;;;;;6.05;4.93;;;;;;;;;;2594488;22;20070;-92
2023/07/06 01:39:27;;;;;;;9.55;5.60;;;;;;;;;;2594463;22;20263;-92
2023/07/06 01:40:30;;;;;;;7.93;5.63;;;;;;;;;;2594026;22;19995;-92
2023/07/06 01:41:31;;;;;;;6.70;5.72;;;;;;;;;;2581461;23;20035;-94
2023/07/06 01:42:35;;;;;;;6.63;5.32;;;;;;;;;;2585927;23;20019;-93
2023/07/06 01:43:36;;;;;;;8.20;4.82;;;;;;;;;;2587198;22;19992;-93
2023/07/06 01:44:40;;;;;;;8.95;5.30;;;;;;;;;;2578570;23;20000;-93
2023/07/06 01:45:40;;;;;;;7.60;5.38;;;;;;;;;;2580916;22;19992;-91
2023/07/06 01:46:51;;;;;;;6.13;5.38;;;;;;;;;;2580807;23;20003;-91
2023/07/06 01:47:55;;;;;;;;;;;;;;;;;;2571131;23;20011;-92
2023/07/06 01:48:58;;;;;;;7.75;5.20;;;;;;;;;;2585396;23;19903;-93
2023/07/06 01:50:02;;;;;;;6.38;5.20;;;;;;;;;;2586554;22;20067;-93
2023/07/06 01:51:15;;;;;;;6.55;5.53;;;;;;;;;;2586326;22;20057;-93
2023/07/06 01:52:33;;;;;;;5.75;4.97;;;;;;;;;;2580918;23;20000;-91
2023/07/06 01:53:58;;;;;;;6.85;4.97;;;;;;;;;;2572166;23;20475;-92
2023/07/06 01:55:09;;;;;;;8.10;5.22;;;;;;;;;;2573545;23;19996;-91
2023/07/06 01:56:21;;;;;;;7.78;5.60;;;;;;;;;;2570346;23;20001;-93
2023/07/06 01:57:35;;;;;;;8.18;5.78;;;;;;;;;;2585338;23;19996;-92
2023/07/06 01:58:46;;;;;;;5.63;4.78;;;;;;;;;;2581159;23;19992;-92
2023/07/06 01:59:50;;;;;;;7.88;5.20;;;;;;;;;;2580511;22;20459;-93
2023/07/06 02:00:55;;;;;;;7.20;5.88;;;;;;;;;;2587799;23;19988;-91
2023/07/06 02:02:00;;;;;;;6.75;5.30;;;;;;;;;;2576707;23;20020;-93
2023/07/06 02:03:05;;;;;;;6.97;5.45;;;;;;;;;;2586145;23;19988;-94
2023/07/06 02:04:07;;;;;;;6.53;5.20;;;;;;;;;;2581650;23;20499;-94
2023/07/06 02:05:10;;;;;;;8.63;5.85;;;;;;;;;;2569663;23;20018;-93
2023/07/06 02:06:12;;;;;;;8.70;5.93;;;;;;;;;;2581567;23;20101;-93
2023/07/06 02:07:16;;;;;;;6.57;5.30;;;;;;;;;;2585492;23;19996;-93
2023/07/06 02:08:18;;;;;;;7.97;5.85;;;;;;;;;;2594848;22;20015;-93
2023/07/06 02:09:18;;;;;;;6.82;6.13;;;;;;;;;;2581682;23;20323;-94
2023/07/06 02:10:22;;;;;;;5.93;5.28;;;;;;;;;;2568504;23;20074;-93
2023/07/06 02:11:24;;;;;;;8.05;5.75;;;;;;;;;;2569841;23;20024;-93
2023/07/06 02:12:25;;;;;;;7.28;5.68;;;;;;;;;;2586255;23;20000;-94
2023/07/06 02:13:25;;;;;;;7.03;5.43;;;;;;;;;;2594506;22;19991;-94
2023/07/06 02:14:26;;;;;;;9.93;5.45;;;;;;;;;;2581645;23;20011;-93
2023/07/06 02:15:27;;;;;;;8.35;5.97;;;;;;;;;;2569210;23;20015;-93
2023/07/06 02:16:30;;;;;;;8.07;5.53;;;;;;;;;;2568692;23;20371;-92
2023/07/06 02:17:30;;;;;;;5.95;5.13;;;;;;;;;;2569335;23;20000;-93
2023/07/06 02:18:33;;;;;;;7.13;5.20;;;;;;;;;;2568590;23;20538;-93
2023/07/06 02:19:35;;;;;;;5.95;5.22;;;;;;;;;;2581259;22;20083;-92
2023/07/06 02:20:35;;;;;;;5.95;5.28;;;;;;;;;;2581602;23;19996;-94
2023/07/06 02:21:36;;;;;;;6.43;5.40;;;;;;;;;;2568899;23;20078;-92
2023/07/06 02:22:39;;;;;;;6.88;6.03;;;;;;;;;;2568090;23;20004;-91
2023/07/06 02:23:40;;;;;;;7.07;5.28;;;;;;;;;;2581140;22;20007;-93
2023/07/06 02:24:40;;;;;;;7.15;5.60;;;;;;;;;;2597953;22;20013;-91
2023/07/06 02:25:42;;;;;;;8.30;6.60;;;;;;;;;;2580944;23;19996;-91
2023/07/06 02:26:42;;;;;;;7.25;5.45;;;;;;;;;;2581740;22;20031;-93
2023/07/06 02:27:51;;;;;;;8.67;5.27;;;;;;;;;;2238104;23;10443665;-92
2023/07/06 02:28:53;;;;;;;6.85;5.45;;;;;;;;;;2582604;22;20293;-93
2023/07/06 02:29:54;;;;;;;9.85;5.55;;;;;;;;;;2576762;23;20003;-93
2023/07/06 02:30:54;;;;;;;8.27;5.60;;;;;;;;;;2581547;23;19996;-93
2023/07/06 02:31:55;;;;;;;7.20;5.82;;;;;;;;;;2580899;23;20062;-93
2023/07/06 02:32:56;;;;;;;8.30;6.13;;;;;;;;;;2584571;23;19992;-92
2023/07/06 02:33:56;;;;;;;7.65;5.88;;;;;;;;;;2586137;22;19992;-92
2023/07/06 02:34:59;;;;;;;8.52;5.88;;;;;;;;;;2586100;22;19992;-92
2023/07/06 02:36:00;;;;;;;8.50;5.75;;;;;;;;;;2586604;22;19992;-93
2023/07/06 02:37:00;;;;;;;7.63;6.05;;;;;;;;;;2580990;23;20069;-93
2023/07/06 02:38:01;;;;;;;8.10;5.90;;;;;;;;;;2568627;23;20092;-93
2023/07/06 02:39:02;;;;;;;7.88;6.05;;;;;;;;;;2581512;23;20046;-92
2023/07/06 02:40:03;;;;;;;6.38;5.63;;;;;;;;;;2586261;22;20062;-94
2023/07/06 02:41:06;;;;;;;9.32;5.88;;;;;;;;;;2594021;22;19988;-94
2023/07/06 02:42:07;;;;;;;8.40;5.70;;;;;;;;;;2593595;22;20470;-93
2023/07/06 02:43:08;;;;;;;8.65;6.03;;;;;;;;;;2585941;23;19992;-93
2023/07/06 02:44:09;;;;;;;9.27;5.80;;;;;;;;;;2584861;22;20019;-94
2023/07/06 02:45:15;;;;;;;8.50;5.75;;;;;;;;;;2581226;23;19992;-93
2023/07/06 02:46:19;;;;;;;8.23;6.22;;;;;;;;;;2569989;23;19992;-93
2023/07/06 02:47:21;;;;;;;7.75;6.03;;;;;;;;;;2569735;23;20000;-95
2023/07/06 02:48:24;;;;;;;6.50;5.78;;;;;;;;;;2571415;23;20003;-93
2023/07/06 02:49:25;;;;;;;9.57;5.88;;;;;;;;;;2578845;23;19993;-95
2023/07/06 02:50:26;;;;;;;6.95;5.85;;;;;;;;;;2568727;23;20473;-92
2023/07/06 02:51:29;;;;;;;7.90;6.20;;;;;;;;;;2581502;23;20000;-93
2023/07/06 02:52:29;;;;;;;7.63;6.00;;;;;;;;;;2585799;23;20074;-94
2023/07/06 02:53:30;;;;;;;10.75;6.43;;;;;;;;;;2594026;22;20122;-94
2023/07/06 02:54:32;;;;;;;7.53;6.28;;;;;;;;;;2594147;22;20083;-93
2023/07/06 02:55:33;;;;;;;10.73;6.15;;;;;;;;;;2584940;23;19992;-92
2023/07/06 02:56:33;;;;;;;8.07;6.47;;;;;;;;;;2593408;22;20018;-92
2023/07/06 02:57:34;;;;;;;8.27;5.80;;;;;;;;;;2601254;22;19992;-91
2023/07/06 02:58:34;;;;;;;8.93;6.18;;;;;;;;;;2605064;22;19996;-92
2023/07/06 02:59:35;;;;;;;8.88;6.65;;;;;;;;;;2580302;23;20016;-92
2023/07/06 03:00:35;;;;;;;8.75;6.25;;;;;;;;;;2578123;23;20024;-93
2023/07/06 03:01:36;;;;;;;9.35;5.95;;;;;;;;;;2572122;23;20221;-92
2023/07/06 03:02:37;;;;;;;9.77;6.60;;;;;;;;;;2581624;23;20529;-93
2023/07/06 03:03:37;;;;;;;7.53;6.65;;;;;;;;;;2598216;22;19992;-93
2023/07/06 03:04:38;;;;;;;7.85;5.60;;;;;;;;;;2585617;22;20019;-92
2023/07/06 03:05:38;;;;;;;10.07;6.63;;;;;;;;;;2593772;22;20000;-92
2023/07/06 03:06:40;;;;;;;12.18;6.72;;;;;;;;;;2593200;22;20094;-93
2023/07/06 03:07:41;;;;;;;9.60;6.28;;;;;;;;;;2568561;23;20000;-92
2023/07/06 03:08:44;;;;;;;8.98;6.13;;;;;;;;;;2567968;23;20354;-92
2023/07/06 03:09:44;;;;;;;8.73;5.80;;;;;;;;;;2568624;23;20076;-92
2023/07/06 03:10:46;;;;;;;6.65;5.78;;;;;;;;;;2567984;23;20004;-92
2023/07/06 03:11:52;;;;;;;7.65;6.40;;;;;;;;;;2568471;23;20076;-93
2023/07/06 03:12:54;;;;;;;7.78;5.75;;;;;;;;;;2569824;23;19996;-95
2023/07/06 03:13:56;;;;;;;8.90;6.40;;;;;;;;;;2581962;22;20449;-94
2023/07/06 03:15:00;;;;;;;8.63;6.50;;;;;;;;;;2598200;22;19996;-95
2023/07/06 03:16:00;;;;;;;8.90;6.30;;;;;;;;;;2130046;22;10508947;-93
2023/07/06 03:17:01;;;;;;;9.13;6.82;;;;;;;;;;2593867;22;20050;-95
2023/07/06 03:18:01;;;;;;;8.27;6.80;;;;;;;;;;2580758;23;20003;-94
2023/07/06 03:19:04;;;;;;;8.32;6.78;;;;;;;;;;2568823;23;20000;-95
2023/07/06 03:20:15;;;;;;;8.32;6.32;;;;;;;;;;2581537;22;20142;-94
2023/07/06 03:21:15;;;;;;;7.22;6.13;;;;;;;;;;2580819;23;19992;-93
2023/07/06 03:22:17;;;;;;;9.95;6.22;;;;;;;;;;2585436;23;20083;-93
2023/07/06 03:23:18;;;;;;;8.27;6.25;;;;;;;;;;2587490;22;20099;-94
2023/07/06 03:24:18;;;;;;;7.88;5.88;;;;;;;;;;2591153;22;20446;-93
2023/07/06 03:25:22;;;;;;;7.60;6.30;;;;;;;;;;2586741;23;20008;-94
2023/07/06 03:26:24;;;;;;;8.60;5.75;;;;;;;;;;2582195;22;20404;-94
2023/07/06 03:27:24;;;;;;;10.52;6.32;;;;;;;;;;2595126;22;20003;-94
2023/07/06 03:28:24;;;;;;;10.07;6.30;;;;;;;;;;2583793;23;20170;-94
2023/07/06 03:29:30;;;;;;;7.97;6.47;;;;;;;;;;2583985;23;20018;-95
2023/07/06 03:30:31;;;;;;;7.93;6.53;;;;;;;;;;2583984;23;20068;-92
2023/07/06 03:31:34;;;;;;;8.40;6.72;;;;;;;;;;2579995;23;19984;-94
2023/07/06 03:32:37;;;;;;;6.95;5.95;;;;;;;;;;2580294;23;20005;-94
2023/07/06 03:33:39;;;;;;;8.15;6.25;;;;;;;;;;2580998;23;20055;-92
2023/07/06 03:34:40;;;;;;;7.53;5.90;;;;;;;;;;2573402;23;19993;-96
2023/07/06 03:35:41;;;;;;;8.93;6.28;;;;;;;;;;2573824;23;20004;-94
2023/07/06 03:36:42;;;;;;;9.77;6.10;;;;;;;;;;2579184;23;19993;-92
2023/07/06 03:38:07;;;;;;;8.20;6.55;;;;;;;;;;2576931;23;20079;-96
2023/07/06 03:39:47;;;;;;;7.53;6.10;;;;;;;;;;2593638;22;19999;-93
2023/07/06 03:41:08;;;;;;;8.85;6.32;;;;;;;;;;2597744;22;20090;-94
2023/07/06 03:42:09;;;;;;;10.88;6.13;;;;;;;;;;2592505;22;20018;-96
2023/07/06 03:43:09;;;;;;;8.95;6.28;;;;;;;;;;2569617;23;20000;-94
2023/07/06 03:44:10;;;;;;;8.45;6.10;;;;;;;;;;2570314;23;19996;-93
2023/07/06 03:45:14;;;;;;;7.97;6.03;;;;;;;;;;2582037;23;20055;-95
2023/07/06 03:46:15;;;;;;;7.00;5.88;;;;;;;;;;2581804;23;20000;-92
2023/07/06 03:47:15;;;;;;;;;;;;;;;;;;2002663;23;13469686;-93
2023/07/06 03:48:16;;;;;;;7.90;6.13;;;;;;;;;;2595569;22;20010;-93
2023/07/06 03:49:18;;;;;;;10.43;6.43;;;;;;;;;;2572118;23;20012;-94
2023/07/06 03:50:22;;;;;;;6.38;5.72;;;;;;;;;;2570440;23;20082;-95
2023/07/06 03:51:22;;;;;;;8.65;6.15;;;;;;;;;;2586575;23;20040;-92
2023/07/06 03:52:23;;;;;;;10.15;6.10;;;;;;;;;;2595337;22;19992;-92
2023/07/06 03:53:24;;;;;;;7.50;5.75;;;;;;;;;;2595053;22;20023;-93
2023/07/06 03:54:24;;;;;;;9.68;6.13;;;;;;;;;;2582172;23;20015;-92
2023/07/06 03:55:26;;;;;;;10.93;5.88;;;;;;;;;;2599499;22;19995;-95
2023/07/06 03:56:29;;;;;;;9.57;6.35;;;;;;;;;;2594736;22;20023;-93
2023/07/06 03:57:30;;;;;;;8.75;6.40;;;;;;;;;;2582511;23;20058;-95
2023/07/06 03:58:30;;;;;;;6.47;5.72;;;;;;;;;;2569935;23;19996;-93
2023/07/06 03:59:31;;;;;;;8.35;5.88;;;;;;;;;;2582212;23;20414;-95
2023/07/06 04:00:34;;;;;;;7.93;6.35;;;;;;;;;;2570099;23;20076;-93
2023/07/06 04:01:36;;;;;;;8.95;6.07;;;;;;;;;;2569876;23;19997;-92
2023/07/06 04:02:39;;;;;;;8.52;6.60;;;;;;;;;;2582891;22;20000;-92
2023/07/06 04:03:44;;;;;;;9.88;6.00;;;;;;;;;;2595220;22;19995;-93
2023/07/06 04:04:46;;;;;;;11.57;6.38;;;;;;;;;;2587190;23;19996;-94
2023/07/06 04:05:48;;;;;;;8.25;6.20;;;;;;;;;;2595548;22;20469;-94
2023/07/06 04:06:48;;;;;;;8.80;5.93;;;;;;;;;;2582629;23;19994;-96
2023/07/06 04:07:52;;;;;;;10.75;7.25;;;;;;;;;;2127719;23;10311615;-94
2023/07/06 04:08:54;;;;;;;8.02;6.35;;;;;;;;;;2355753;23;5000608;-95
2023/07/06 04:09:54;;;;;;;9.70;6.80;;;;;;;;;;2582921;22;20078;-95
2023/07/06 04:10:55;;;;;;;10.68;6.63;;;;;;;;;;2582415;23;20004;-95
2023/07/06 04:11:55;;;;;;;7.80;5.90;;;;;;;;;;2582400;23;20095;-94
2023/07/06 04:13:00;;;;;;;7.55;5.90;;;;;;;;;;2582524;23;20401;-95
2023/07/06 04:14:03;;;;;;;8.63;6.20;;;;;;;;;;2570370;23;19996;-95
2023/07/06 04:15:06;;;;;;;9.35;6.63;;;;;;;;;;2570108;23;20010;-94
2023/07/06 04:16:15;;;;;;;7.97;6.25;;;;;;;;;;2570438;23;20059;-93
2023/07/06 04:17:16;;;;;;;12.95;8.70;;;;;;;;;;2588325;22;20028;-94
2023/07/06 04:18:17;;;;;;;14.25;8.77;;;;;;;;;;2582574;23;20433;-94
2023/07/06 04:19:18;;;;;;;11.32;7.65;;;;;;;;;;2570054;23;20415;-96
2023/07/06 04:20:22;;;;;;;8.88;6.05;;;;;;;;;;2569817;23;20346;-96
2023/07/06 04:21:22;;;;;;;8.20;6.32;;;;;;;;;;2570615;23;19989;-94
2023/07/06 04:22:25;;;;;;;10.77;6.43;;;;;;;;;;2582312;23;20033;-96
2023/07/06 04:23:25;;;;;;;13.88;7.95;;;;;;;;;;2574666;23;20008;-95
2023/07/06 04:24:31;;;;;;;10.30;7.22;;;;;;;;;;2589434;23;20007;-92
2023/07/06 04:25:36;;;;;;;9.45;6.13;;;;;;;;;;2589861;22;19992;-94
2023/07/06 04:26:37;;;;;;;8.30;6.38;;;;;;;;;;2588090;22;20004;-91
2023/07/06 04:27:38;;;;;;;8.05;6.35;;;;;;;;;;2600175;22;20038;-95
2023/07/06 04:28:40;;;;;;;7.70;5.75;;;;;;;;;;2588482;22;19992;-94
2023/07/06 04:29:44;;;;;;;8.10;6.57;;;;;;;;;;2582674;23;20007;-94
2023/07/06 04:30:49;;;;;;;8.82;6.28;;;;;;;;;;2583176;22;20076;-93
2023/07/06 04:31:49;;;;;;;8.48;6.30;;;;;;;;;;2598965;22;20426;-94
2023/07/06 04:32:50;;;;;;;9.35;6.63;;;;;;;;;;2595389;22;19996;-95
2023/07/06 04:33:50;;;;;;;9.07;6.05;;;;;;;;;;2582244;23;20430;-94
2023/07/06 04:34:51;;;;;;;8.43;6.47;;;;;;;;;;2586780;23;20109;-95
2023/07/06 04:35:52;;;;;;;8.80;6.70;;;;;;;;;;2582787;23;20027;-95
2023/07/06 04:36:56;;;;;;;8.23;5.75;;;;;;;;;;2569892;23;20439;-94
2023/07/06 04:37:56;;;;;;;8.25;6.07;;;;;;;;;;2586706;23;19992;-94
2023/07/06 04:39:01;;;;;;;7.95;6.10;;;;;;;;;;2587834;22;20310;-94
2023/07/06 04:40:11;;;;;;;7.50;6.05;;;;;;;;;;2582761;23;19992;-94
2023/07/06 04:41:15;;;;;;;8.30;5.82;;;;;;;;;;2590372;22;20019;-94
2023/07/06 04:42:15;;;;;;;7.95;5.85;;;;;;;;;;2585197;23;20004;-94
2023/07/06 04:43:16;;;;;;;7.63;5.93;;;;;;;;;;2585880;23;20374;-92
2023/07/06 04:44:18;;;;;;;7.15;5.15;;;;;;;;;;2588771;23;20106;-96
2023/07/06 04:45:19;;;;;;;9.18;5.43;;;;;;;;;;2584309;23;19996;-94
2023/07/06 04:46:21;;;;;;;7.68;5.32;;;;;;;;;;2588449;23;19992;-95
2023/07/06 04:47:23;;;;;;;6.82;5.63;;;;;;;;;;2583507;23;19988;-94
2023/07/06 04:48:24;;;;;;;8.45;5.50;;;;;;;;;;2571000;23;20001;-96
2023/07/06 04:49:25;;;;;;;7.53;5.10;;;;;;;;;;2570899;23;19992;-95
2023/07/06 04:50:27;;;;;;;8.77;5.70;;;;;;;;;;2587823;23;19996;-93
2023/07/06 04:51:27;;;;;;;7.82;5.50;;;;;;;;;;2596046;22;20460;-94
2023/07/06 04:52:28;;;;;;;7.78;5.63;;;;;;;;;;2582258;23;20070;-94
2023/07/06 04:53:28;;;;;;;9.60;5.50;;;;;;;;;;2582412;23;20023;-93
2023/07/06 04:54:30;;;;;;;7.82;5.60;;;;;;;;;;2584098;23;20007;-95
2023/07/06 04:55:31;;;;;;;8.65;5.25;;;;;;;;;;2582777;23;20000;-96
2023/07/06 04:56:31;;;;;;;13.43;5.28;;;;;;;;;;2586727;23;20019;-95
2023/07/06 04:57:32;;;;;;;6.68;5.10;;;;;;;;;;2582095;23;19996;-94
2023/07/06 04:58:32;;;;;;;15.63;5.28;;;;;;;;;;2586379;23;20019;-95
2023/07/06 04:59:33;;;;;;;5.93;4.78;;;;;;;;;;2581885;23;20035;-94
2023/07/06 05:00:39;;;;;;;7.90;5.10;;;;;;;;;;2582654;23;20003;-96
2023/07/06 05:01:40;;;;;;;6.47;4.80;;;;;;;;;;2582805;23;19992;-91
2023/07/06 05:02:42;;;;;;;6.63;5.18;;;;;;;;;;2569659;23;20027;-94
2023/07/06 05:03:45;;;;;;;6.93;5.20;;;;;;;;;;2583240;22;19992;-93
2023/07/06 05:04:48;;;;;;;5.35;4.80;;;;;;;;;;2595192;22;20368;-94
2023/07/06 05:05:49;;;;;;;6.78;4.88;;;;;;;;;;2600137;22;20401;-94
2023/07/06 05:06:50;;;;;;;7.25;5.15;;;;;;;;;;2594333;22;19987;-95
2023/07/06 05:07:51;;;;;;;9.70;5.05;;;;;;;;;;2583100;23;19992;-95
2023/07/06 05:08:52;;;;;;;7.60;4.82;;;;;;;;;;2569872;23;20322;-93
2023/07/06 05:09:53;;;;;;;7.45;5.18;;;;;;;;;;2569692;23;20462;-93
2023/07/06 05:10:53;;;;;;;6.05;5.30;;;;;;;;;;2572967;23;20032;-93
2023/07/06 05:11:54;;;;;;;7.18;5.07;;;;;;;;;;2575438;23;20003;-91
2023/07/06 05:12:57;;;;;;;6.88;5.32;;;;;;;;;;2586832;23;20058;-93
2023/07/06 05:13:58;;;;;;;5.63;5.05;;;;;;;;;;2594197;22;20002;-95
2023/07/06 05:14:58;;;;;;;7.70;5.13;;;;;;;;;;2582143;23;20394;-94
2023/07/06 05:15:59;;;;;;;6.63;5.10;;;;;;;;;;2569391;23;20022;-92
2023/07/06 05:17:00;;;;;;;6.45;5.63;;;;;;;;;;2569820;23;20037;-94
2023/07/06 05:18:01;;;;;;;7.78;4.97;;;;;;;;;;2582525;22;19988;-93
2023/07/06 05:19:02;;;;;;;7.18;5.07;;;;;;;;;;2594786;22;20053;-93
2023/07/06 05:20:08;;;;;;;10.32;6.50;;;;;;;;;;2587165;23;20059;-95
2023/07/06 05:21:10;;;;;;;6.68;4.72;;;;;;;;;;2582218;23;19996;-95
2023/07/06 05:22:12;;;;;;;9.88;5.53;;;;;;;;;;2572985;23;20346;-95
2023/07/06 05:23:12;;;;;;;6.20;5.05;;;;;;;;;;1296911;22;10001101;-95
2023/07/06 05:24:13;;;;;;;5.50;4.78;;;;;;;;;;2598709;22;20006;-94
2023/07/06 05:25:17;;;;;;;10.95;5.85;;;;;;;;;;2611001;22;20006;-96
2023/07/06 05:26:18;;;;;;;9.95;5.93;;;;;;;;;;2593908;22;20047;-95
2023/07/06 05:27:19;;;;;;;8.85;5.57;;;;;;;;;;2591504;22;20040;-93
2023/07/06 05:28:21;;;;;;;7.07;4.97;;;;;;;;;;2605198;22;20056;-94
2023/07/06 05:29:21;;;;;;;8.45;5.15;;;;;;;;;;2596317;22;20000;-95
2023/07/06 05:30:22;;;;;;;6.47;5.28;;;;;;;;;;2600751;22;19995;-93
2023/07/06 05:31:22;;;;;;;5.55;5.05;;;;;;;;;;2599508;22;20003;-94
2023/07/06 05:32:25;;;;;;;6.22;5.18;;;;;;;;;;2581922;23;19996;-96
2023/07/06 05:33:26;;;;;;;5.50;4.72;;;;;;;;;;2582106;23;20023;-96
2023/07/06 05:34:26;;;;;;;5.53;4.82;;;;;;;;;;2586325;23;20467;-94
2023/07/06 05:35:29;;;;;;;6.68;5.18;;;;;;;;;;2582525;23;20388;-95
2023/07/06 05:36:29;;;;;;;8.45;4.85;;;;;;;;;;2570930;23;20027;-96
2023/07/06 05:37:30;;;;;;;5.32;4.80;;;;;;;;;;2586699;23;20022;-96
2023/07/06 05:38:33;;;;;;;6.65;4.80;;;;;;;;;;2582111;23;20346;-94
2023/07/06 05:39:34;;;;;;;8.50;5.07;;;;;;;;;;2570574;23;20012;-96
2023/07/06 05:40:35;;;;;;;6.13;4.38;;;;;;;;;;2569438;23;20018;-95
2023/07/06 05:41:36;;;;;;;5.78;4.90;;;;;;;;;;2569242;23;20028;-93
2023/07/06 05:42:36;;;;;;;6.45;5.03;;;;;;;;;;2569926;23;20163;-96
2023/07/06 05:43:37;;;;;;;6.15;4.93;;;;;;;;;;2569168;23;20001;-94
2023/07/06 05:44:37;;;;;;;6.90;5.55;;;;;;;;;;2582593;23;19992;-94
2023/07/06 05:45:38;;;;;;;5.50;5.00;;;;;;;;;;2584323;23;20048;-94
2023/07/06 05:46:38;;;;;;;6.82;5.30;;;;;;;;;;2573276;23;20194;-93
2023/07/06 05:47:39;;;;;;;5.72;5.07;;;;;;;;;;2572567;23;20004;-94
2023/07/06 05:48:40;;;;;;;5.63;5.13;;;;;;;;;;2569505;23;20004;-96
2023/07/06 05:49:40;;;;;;;7.82;5.18;;;;;;;;;;2570002;23;20100;-96
2023/07/06 05:50:41;;;;;;;6.97;5.25;;;;;;;;;;2569108;23;20380;-95
2023/07/06 05:51:52;;;;;;;8.85;5.18;;;;;;;;;;2573473;23;20008;-95
2023/07/06 05:52:52;;;;;;;5.50;4.53;;;;;;;;;;2571858;23;20334;-96
2023/07/06 05:53:53;;;;;;;6.28;5.10;;;;;;;;;;2586229;23;19992;-95
2023/07/06 05:55:00;;;;;;;6.60;4.82;;;;;;;;;;2595239;22;19988;-96
2023/07/06 05:56:07;;;;;;;5.68;5.10;;;;;;;;;;2599937;22;19987;-96
2023/07/06 05:57:08;;;;;;;7.65;5.30;;;;;;;;;;2595112;22;20066;-96
2023/07/06 05:58:16;;;;;;;5.80;4.86;;;;;;;;;;2385325;22;10245035;-96
2023/07/06 05:59:16;;;;;;;7.63;5.32;;;;;;;;;;2582426;23;20226;-96
2023/07/06 06:00:18;;;;;;;6.03;5.07;;;;;;;;;;2572309;23;20084;-96
2023/07/06 06:01:23;;;;;;;8.52;5.03;;;;;;;;;;2583771;22;19992;-95
2023/07/06 06:02:23;;;;;;;5.80;4.78;;;;;;;;;;2582745;23;20000;-96
2023/07/06 06:03:27;;;;;;;6.70;5.00;;;;;;;;;;2570054;23;20031;-96
2023/07/06 06:04:32;;;;;;;5.28;4.78;;;;;;;;;;2570718;23;20008;-96
2023/07/06 06:05:34;;;;;;;5.40;4.90;;;;;;;;;;2570679;23;20000;-94
2023/07/06 06:06:57;;;;;;;6.65;5.35;;;;;;;;;;2586199;23;20473;-95
2023/07/06 06:08:01;;;;;;;6.72;5.20;;;;;;;;;;2586993;22;19999;-96
2023/07/06 06:09:04;;;;;;;5.53;5.03;;;;;;;;;;2151866;23;10002490;-96
2023/07/06 06:10:05;;;;;;;7.55;4.72;;;;;;;;;;2558199;23;20115;-96
2023/07/06 06:11:06;;;;;;;5.88;5.10;;;;;;;;;;2582146;22;20024;-94
2023/07/06 06:12:11;;;;;;;6.97;5.53;;;;;;;;;;2581965;23;20193;-96
2023/07/06 06:13:11;;;;;;;8.63;5.13;;;;;;;;;;2570173;23;20019;-96
2023/07/06 06:14:12;;;;;;;7.82;4.97;;;;;;;;;;2582210;23;20031;-96
2023/07/06 06:15:14;;;;;;;6.53;5.13;;;;;;;;;;2128590;23;10518043;-96
2023/07/06 06:16:18;;;;;;;5.55;4.60;;;;;;;;;;2584114;23;20435;-95
2023/07/06 06:17:19;;;;;;;5.50;4.93;;;;;;;;;;2582713;23;20350;-96
2023/07/06 06:18:49;;;;;;;6.65;5.07;;;;;;;;;;2586015;23;20070;-96
2023/07/06 06:19:51;;;;;;;4.72;4.20;;;;;;;;;;2140342;23;10293254;-94
2023/07/06 06:20:51;;;;;;;6.28;5.10;;;;;;;;;;2581572;23;19999;-93
2023/07/06 06:21:54;;;;;;;7.85;4.75;;;;;;;;;;2584049;23;20055;-95